sensor_id;sensor_type;location;lat;lon;timestamp;P1;durP1;ratioP1;P2;durP2;ratioP2
65373;SDS011;52070;53.760;9.678;2022-11-15T00:01:17;55.45;;;24.85;;
65373;SDS011;52070;53.760;9.678;2022-11-15T00:03:45;51.97;;;24.58;;
65373;SDS011;52070;53.760;9.678;2022-11-15T00:06:12;49.75;;;24.05;;
65373;SDS011;52070;53.760;9.678;2022-11-15T00:08:39;48.70;;;24.20;;
65373;SDS011;52070;53.760;9.678;2022-11-15T00:11:06;49.45;;;24.63;;
65373;SDS011;52070;53.760;9.678;2022-11-15T00:13:34;52.63;;;24.52;;
65373;SDS011;52070;53.760;9.678;2022-11-15T00:16:01;48.08;;;23.98;;
65373;SDS011;52070;53.760;9.678;2022-11-15T00:18:29;50.33;;;24.05;;
65373;SDS011;52070;53.760;9.678;2022-11-15T00:21:02;46.13;;;24.42;;
65373;SDS011;52070;53.760;9.678;2022-11-15T00:23:30;52.60;;;23.92;;
65373;SDS011;52070;53.760;9.678;2022-11-15T00:25:57;49.40;;;23.92;;
65373;SDS011;52070;53.760;9.678;2022-11-15T00:28:25;51.85;;;25.52;;
65373;SDS011;52070;53.760;9.678;2022-11-15T00:30:53;50.58;;;23.83;;
65373;SDS011;52070;53.760;9.678;2022-11-15T00:33:26;50.05;;;24.88;;
65373;SDS011;52070;53.760;9.678;2022-11-15T00:35:53;51.15;;;24.70;;
65373;SDS011;52070;53.760;9.678;2022-11-15T00:38:19;51.53;;;24.90;;
65373;SDS011;52070;53.760;9.678;2022-11-15T00:40:46;48.38;;;23.58;;
65373;SDS011;52070;53.760;9.678;2022-11-15T00:43:13;50.92;;;25.10;;
65373;SDS011;52070;53.760;9.678;2022-11-15T00:45:40;49.38;;;24.77;;
65373;SDS011;52070;53.760;9.678;2022-11-15T00:48:09;45.45;;;23.50;;
65373;SDS011;52070;53.760;9.678;2022-11-15T00:50:36;51.10;;;24.80;;
65373;SDS011;52070;53.760;9.678;2022-11-15T00:53:03;45.95;;;24.38;;
65373;SDS011;52070;53.760;9.678;2022-11-15T00:55:30;48.00;;;24.35;;
65373;SDS011;52070;53.760;9.678;2022-11-15T00:57:57;49.78;;;24.30;;
65373;SDS011;52070;53.760;9.678;2022-11-15T01:00:24;55.92;;;24.90;;
65373;SDS011;52070;53.760;9.678;2022-11-15T01:02:51;50.88;;;23.90;;
65373;SDS011;52070;53.760;9.678;2022-11-15T01:05:19;50.85;;;24.77;;
65373;SDS011;52070;53.760;9.678;2022-11-15T01:07:46;53.60;;;24.60;;
65373;SDS011;52070;53.760;9.678;2022-11-15T01:10:13;52.75;;;24.02;;
65373;SDS011;52070;53.760;9.678;2022-11-15T01:12:40;51.85;;;25.17;;
65373;SDS011;52070;53.760;9.678;2022-11-15T01:15:08;54.13;;;25.10;;
65373;SDS011;52070;53.760;9.678;2022-11-15T01:17:35;46.35;;;24.25;;
65373;SDS011;52070;53.760;9.678;2022-11-15T01:20:02;47.20;;;24.20;;
65373;SDS011;52070;53.760;9.678;2022-11-15T01:22:31;49.03;;;24.05;;
65373;SDS011;52070;53.760;9.678;2022-11-15T01:24:58;51.17;;;23.85;;
65373;SDS011;52070;53.760;9.678;2022-11-15T01:27:25;50.33;;;23.27;;
65373;SDS011;52070;53.760;9.678;2022-11-15T01:29:52;46.58;;;22.52;;
65373;SDS011;52070;53.760;9.678;2022-11-15T01:32:19;47.58;;;22.70;;
65373;SDS011;52070;53.760;9.678;2022-11-15T01:34:46;43.88;;;22.60;;
65373;SDS011;52070;53.760;9.678;2022-11-15T01:37:13;42.03;;;21.50;;
65373;SDS011;52070;53.760;9.678;2022-11-15T01:39:41;41.80;;;22.38;;
65373;SDS011;52070;53.760;9.678;2022-11-15T01:42:10;44.17;;;23.30;;
65373;SDS011;52070;53.760;9.678;2022-11-15T01:44:40;46.63;;;22.65;;
65373;SDS011;52070;53.760;9.678;2022-11-15T01:47:09;43.07;;;21.77;;
65373;SDS011;52070;53.760;9.678;2022-11-15T01:49:40;46.92;;;23.33;;
65373;SDS011;52070;53.760;9.678;2022-11-15T01:52:13;46.47;;;21.63;;
65373;SDS011;52070;53.760;9.678;2022-11-15T01:57:12;40.25;;;20.70;;
65373;SDS011;52070;53.760;9.678;2022-11-15T01:59:40;46.00;;;21.60;;
65373;SDS011;52070;53.760;9.678;2022-11-15T02:02:09;42.38;;;21.45;;
65373;SDS011;52070;53.760;9.678;2022-11-15T02:04:37;43.50;;;21.70;;
65373;SDS011;52070;53.760;9.678;2022-11-15T02:07:08;41.67;;;21.33;;
65373;SDS011;52070;53.760;9.678;2022-11-15T02:09:37;43.50;;;21.55;;
65373;SDS011;52070;53.760;9.678;2022-11-15T02:12:07;45.80;;;21.55;;
65373;SDS011;52070;53.760;9.678;2022-11-15T02:17:07;39.67;;;21.23;;
65373;SDS011;52070;53.760;9.678;2022-11-15T02:19:55;41.35;;;20.60;;
65373;SDS011;52070;53.760;9.678;2022-11-15T02:22:52;41.20;;;20.05;;
65373;SDS011;52070;53.760;9.678;2022-11-15T02:25:38;40.70;;;20.58;;
65373;SDS011;52070;53.760;9.678;2022-11-15T02:28:20;41.67;;;21.42;;
65373;SDS011;52070;53.760;9.678;2022-11-15T02:31:09;44.47;;;21.40;;
65373;SDS011;52070;53.760;9.678;2022-11-15T02:33:39;40.10;;;20.30;;
65373;SDS011;52070;53.760;9.678;2022-11-15T02:36:11;39.92;;;20.13;;
65373;SDS011;52070;53.760;9.678;2022-11-15T02:38:45;41.80;;;20.63;;
65373;SDS011;52070;53.760;9.678;2022-11-15T02:41:20;38.72;;;20.67;;
65373;SDS011;52070;53.760;9.678;2022-11-15T02:43:53;39.90;;;20.98;;
65373;SDS011;52070;53.760;9.678;2022-11-15T02:46:27;39.72;;;20.85;;
65373;SDS011;52070;53.760;9.678;2022-11-15T02:49:17;37.55;;;20.00;;
65373;SDS011;52070;53.760;9.678;2022-11-15T02:51:44;39.92;;;20.38;;
65373;SDS011;52070;53.760;9.678;2022-11-15T02:54:15;37.13;;;20.70;;
65373;SDS011;52070;53.760;9.678;2022-11-15T02:56:46;40.92;;;20.55;;
65373;SDS011;52070;53.760;9.678;2022-11-15T02:59:19;35.42;;;19.90;;
65373;SDS011;52070;53.760;9.678;2022-11-15T03:01:59;42.87;;;20.67;;
65373;SDS011;52070;53.760;9.678;2022-11-15T03:04:37;38.58;;;19.75;;
65373;SDS011;52070;53.760;9.678;2022-11-15T03:07:11;44.97;;;20.90;;
65373;SDS011;52070;53.760;9.678;2022-11-15T03:09:43;40.28;;;20.60;;
65373;SDS011;52070;53.760;9.678;2022-11-15T03:12:18;37.88;;;20.50;;
65373;SDS011;52070;53.760;9.678;2022-11-15T03:14:56;41.72;;;21.20;;
65373;SDS011;52070;53.760;9.678;2022-11-15T03:17:29;42.28;;;20.75;;
65373;SDS011;52070;53.760;9.678;2022-11-15T03:20:01;40.70;;;19.15;;
65373;SDS011;52070;53.760;9.678;2022-11-15T03:22:33;36.78;;;18.40;;
65373;SDS011;52070;53.760;9.678;2022-11-15T03:25:04;42.22;;;20.02;;
65373;SDS011;52070;53.760;9.678;2022-11-15T03:27:34;40.25;;;20.42;;
65373;SDS011;52070;53.760;9.678;2022-11-15T03:30:07;35.90;;;18.02;;
65373;SDS011;52070;53.760;9.678;2022-11-15T03:32:38;38.90;;;19.70;;
65373;SDS011;52070;53.760;9.678;2022-11-15T03:35:11;38.75;;;20.45;;
65373;SDS011;52070;53.760;9.678;2022-11-15T03:37:41;42.67;;;20.70;;
65373;SDS011;52070;53.760;9.678;2022-11-15T03:40:15;38.30;;;20.05;;
65373;SDS011;52070;53.760;9.678;2022-11-15T03:42:43;39.13;;;19.42;;
65373;SDS011;52070;53.760;9.678;2022-11-15T03:45:15;39.03;;;20.08;;
65373;SDS011;52070;53.760;9.678;2022-11-15T03:47:48;41.70;;;20.92;;
65373;SDS011;52070;53.760;9.678;2022-11-15T03:50:18;44.58;;;21.00;;
65373;SDS011;52070;53.760;9.678;2022-11-15T03:52:47;43.60;;;20.52;;
65373;SDS011;52070;53.760;9.678;2022-11-15T03:55:16;42.05;;;20.13;;
65373;SDS011;52070;53.760;9.678;2022-11-15T03:57:44;43.72;;;21.23;;
65373;SDS011;52070;53.760;9.678;2022-11-15T04:00:13;41.08;;;20.70;;
65373;SDS011;52070;53.760;9.678;2022-11-15T04:02:41;39.20;;;20.05;;
65373;SDS011;52070;53.760;9.678;2022-11-15T04:05:09;42.97;;;20.38;;
65373;SDS011;52070;53.760;9.678;2022-11-15T04:07:36;41.38;;;21.27;;
65373;SDS011;52070;53.760;9.678;2022-11-15T04:10:04;43.03;;;20.23;;
65373;SDS011;52070;53.760;9.678;2022-11-15T04:12:32;37.08;;;19.30;;
65373;SDS011;52070;53.760;9.678;2022-11-15T04:15:01;40.95;;;20.52;;
65373;SDS011;52070;53.760;9.678;2022-11-15T04:17:36;43.47;;;21.30;;
65373;SDS011;52070;53.760;9.678;2022-11-15T04:20:06;40.15;;;20.55;;
65373;SDS011;52070;53.760;9.678;2022-11-15T04:22:54;46.80;;;21.38;;
65373;SDS011;52070;53.760;9.678;2022-11-15T04:25:40;42.40;;;20.13;;
65373;SDS011;52070;53.760;9.678;2022-11-15T04:28:07;40.92;;;20.60;;
65373;SDS011;52070;53.760;9.678;2022-11-15T04:30:34;37.53;;;20.20;;
65373;SDS011;52070;53.760;9.678;2022-11-15T04:33:02;41.25;;;20.42;;
65373;SDS011;52070;53.760;9.678;2022-11-15T04:35:29;40.67;;;19.35;;
65373;SDS011;52070;53.760;9.678;2022-11-15T04:37:57;39.95;;;20.10;;
65373;SDS011;52070;53.760;9.678;2022-11-15T04:40:23;44.88;;;20.63;;
65373;SDS011;52070;53.760;9.678;2022-11-15T04:42:50;46.58;;;21.25;;
65373;SDS011;52070;53.760;9.678;2022-11-15T04:45:17;48.80;;;20.85;;
65373;SDS011;52070;53.760;9.678;2022-11-15T04:47:44;46.88;;;21.83;;
65373;SDS011;52070;53.760;9.678;2022-11-15T04:50:12;45.67;;;21.80;;
65373;SDS011;52070;53.760;9.678;2022-11-15T04:52:40;48.00;;;21.55;;
65373;SDS011;52070;53.760;9.678;2022-11-15T04:55:09;40.97;;;20.33;;
65373;SDS011;52070;53.760;9.678;2022-11-15T04:57:37;40.13;;;20.42;;
65373;SDS011;52070;53.760;9.678;2022-11-15T05:00:05;44.90;;;20.60;;
65373;SDS011;52070;53.760;9.678;2022-11-15T05:02:34;41.50;;;20.07;;
65373;SDS011;52070;53.760;9.678;2022-11-15T05:05:19;39.30;;;19.85;;
65373;SDS011;52070;53.760;9.678;2022-11-15T05:07:46;42.22;;;21.02;;
65373;SDS011;52070;53.760;9.678;2022-11-15T05:10:14;41.10;;;21.15;;
65373;SDS011;52070;53.760;9.678;2022-11-15T05:12:41;38.40;;;19.73;;
65373;SDS011;52070;53.760;9.678;2022-11-15T05:15:08;43.70;;;20.20;;
65373;SDS011;52070;53.760;9.678;2022-11-15T05:17:36;40.80;;;20.67;;
65373;SDS011;52070;53.760;9.678;2022-11-15T05:20:03;41.75;;;21.15;;
65373;SDS011;52070;53.760;9.678;2022-11-15T05:22:31;38.45;;;19.15;;
65373;SDS011;52070;53.760;9.678;2022-11-15T05:24:58;39.83;;;20.77;;
65373;SDS011;52070;53.760;9.678;2022-11-15T05:27:26;40.15;;;20.58;;
65373;SDS011;52070;53.760;9.678;2022-11-15T05:29:53;42.22;;;19.73;;
65373;SDS011;52070;53.760;9.678;2022-11-15T05:32:20;36.33;;;19.42;;
65373;SDS011;52070;53.760;9.678;2022-11-15T05:34:47;39.88;;;20.00;;
65373;SDS011;52070;53.760;9.678;2022-11-15T05:37:14;36.97;;;19.63;;
65373;SDS011;52070;53.760;9.678;2022-11-15T05:39:42;40.63;;;19.75;;
65373;SDS011;52070;53.760;9.678;2022-11-15T05:42:09;38.72;;;19.80;;
65373;SDS011;52070;53.760;9.678;2022-11-15T05:44:40;43.15;;;19.63;;
65373;SDS011;52070;53.760;9.678;2022-11-15T05:47:11;34.63;;;19.45;;
65373;SDS011;52070;53.760;9.678;2022-11-15T05:49:41;34.35;;;19.00;;
65373;SDS011;52070;53.760;9.678;2022-11-15T05:52:11;35.25;;;18.30;;
65373;SDS011;52070;53.760;9.678;2022-11-15T05:54:41;44.05;;;19.48;;
65373;SDS011;52070;53.760;9.678;2022-11-15T05:57:08;38.28;;;19.42;;
65373;SDS011;52070;53.760;9.678;2022-11-15T05:59:35;37.95;;;19.58;;
65373;SDS011;52070;53.760;9.678;2022-11-15T06:02:05;32.05;;;18.67;;
65373;SDS011;52070;53.760;9.678;2022-11-15T06:04:31;33.10;;;18.55;;
65373;SDS011;52070;53.760;9.678;2022-11-15T06:06:58;34.10;;;18.70;;
65373;SDS011;52070;53.760;9.678;2022-11-15T06:09:25;36.42;;;18.50;;
65373;SDS011;52070;53.760;9.678;2022-11-15T06:11:52;37.28;;;18.75;;
65373;SDS011;52070;53.760;9.678;2022-11-15T06:14:19;34.55;;;19.15;;
65373;SDS011;52070;53.760;9.678;2022-11-15T06:16:46;36.55;;;18.95;;
65373;SDS011;52070;53.760;9.678;2022-11-15T06:19:15;37.83;;;19.70;;
65373;SDS011;52070;53.760;9.678;2022-11-15T06:21:42;35.92;;;18.25;;
65373;SDS011;52070;53.760;9.678;2022-11-15T06:24:09;33.85;;;19.23;;
65373;SDS011;52070;53.760;9.678;2022-11-15T06:26:36;32.13;;;18.10;;
65373;SDS011;52070;53.760;9.678;2022-11-15T06:29:03;37.08;;;18.55;;
65373;SDS011;52070;53.760;9.678;2022-11-15T06:31:30;33.80;;;18.33;;
65373;SDS011;52070;53.760;9.678;2022-11-15T06:33:57;36.20;;;18.88;;
65373;SDS011;52070;53.760;9.678;2022-11-15T06:36:26;35.17;;;17.70;;
65373;SDS011;52070;53.760;9.678;2022-11-15T06:38:53;36.20;;;18.30;;
65373;SDS011;52070;53.760;9.678;2022-11-15T06:41:20;37.85;;;18.27;;
65373;SDS011;52070;53.760;9.678;2022-11-15T06:43:47;35.40;;;17.42;;
65373;SDS011;52070;53.760;9.678;2022-11-15T06:46:14;33.92;;;19.17;;
65373;SDS011;52070;53.760;9.678;2022-11-15T06:48:41;33.92;;;18.73;;
65373;SDS011;52070;53.760;9.678;2022-11-15T06:51:08;27.95;;;16.90;;
65373;SDS011;52070;53.760;9.678;2022-11-15T06:53:37;32.03;;;17.15;;
65373;SDS011;52070;53.760;9.678;2022-11-15T06:56:04;34.28;;;18.33;;
65373;SDS011;52070;53.760;9.678;2022-11-15T06:58:33;34.72;;;16.55;;
65373;SDS011;52070;53.760;9.678;2022-11-15T07:01:00;32.45;;;16.80;;
65373;SDS011;52070;53.760;9.678;2022-11-15T07:03:27;33.67;;;17.33;;
65373;SDS011;52070;53.760;9.678;2022-11-15T07:05:55;33.92;;;17.25;;
65373;SDS011;52070;53.760;9.678;2022-11-15T07:08:23;32.80;;;16.98;;
65373;SDS011;52070;53.760;9.678;2022-11-15T07:10:54;29.80;;;16.75;;
65373;SDS011;52070;53.760;9.678;2022-11-15T07:13:25;31.38;;;16.30;;
65373;SDS011;52070;53.760;9.678;2022-11-15T07:15:52;28.58;;;15.70;;
65373;SDS011;52070;53.760;9.678;2022-11-15T07:18:19;28.50;;;15.88;;
65373;SDS011;52070;53.760;9.678;2022-11-15T07:20:49;26.48;;;15.93;;
65373;SDS011;52070;53.760;9.678;2022-11-15T07:23:16;27.13;;;15.32;;
65373;SDS011;52070;53.760;9.678;2022-11-15T07:25:42;31.70;;;15.52;;
65373;SDS011;52070;53.760;9.678;2022-11-15T07:28:11;28.90;;;15.55;;
65373;SDS011;52070;53.760;9.678;2022-11-15T07:30:38;31.48;;;16.70;;
65373;SDS011;52070;53.760;9.678;2022-11-15T07:33:05;26.70;;;15.75;;
65373;SDS011;52070;53.760;9.678;2022-11-15T07:35:32;30.67;;;15.52;;
65373;SDS011;52070;53.760;9.678;2022-11-15T07:37:59;28.33;;;15.68;;
65373;SDS011;52070;53.760;9.678;2022-11-15T07:40:28;29.15;;;15.75;;
65373;SDS011;52070;53.760;9.678;2022-11-15T07:42:59;33.97;;;16.10;;
65373;SDS011;52070;53.760;9.678;2022-11-15T07:45:28;27.55;;;14.75;;
65373;SDS011;52070;53.760;9.678;2022-11-15T07:47:56;27.80;;;14.95;;
65373;SDS011;52070;53.760;9.678;2022-11-15T07:50:23;33.50;;;16.45;;
65373;SDS011;52070;53.760;9.678;2022-11-15T07:52:53;29.83;;;15.50;;
65373;SDS011;52070;53.760;9.678;2022-11-15T07:55:21;27.55;;;15.02;;
65373;SDS011;52070;53.760;9.678;2022-11-15T07:57:48;32.35;;;15.00;;
65373;SDS011;52070;53.760;9.678;2022-11-15T08:00:16;25.65;;;14.80;;
65373;SDS011;52070;53.760;9.678;2022-11-15T08:02:45;27.92;;;14.48;;
65373;SDS011;52070;53.760;9.678;2022-11-15T08:05:12;29.92;;;14.73;;
65373;SDS011;52070;53.760;9.678;2022-11-15T08:07:40;25.55;;;14.23;;
65373;SDS011;52070;53.760;9.678;2022-11-15T08:10:07;26.38;;;14.20;;
65373;SDS011;52070;53.760;9.678;2022-11-15T08:12:34;26.60;;;14.38;;
65373;SDS011;52070;53.760;9.678;2022-11-15T08:15:01;23.30;;;13.90;;
65373;SDS011;52070;53.760;9.678;2022-11-15T08:17:29;25.80;;;14.60;;
65373;SDS011;52070;53.760;9.678;2022-11-15T08:19:59;25.17;;;14.23;;
65373;SDS011;52070;53.760;9.678;2022-11-15T08:22:26;24.73;;;14.35;;
65373;SDS011;52070;53.760;9.678;2022-11-15T08:24:53;25.75;;;14.43;;
65373;SDS011;52070;53.760;9.678;2022-11-15T08:27:20;26.02;;;14.45;;
65373;SDS011;52070;53.760;9.678;2022-11-15T08:29:48;28.80;;;15.18;;
65373;SDS011;52070;53.760;9.678;2022-11-15T08:32:16;25.95;;;14.85;;
65373;SDS011;52070;53.760;9.678;2022-11-15T08:34:43;27.38;;;14.57;;
65373;SDS011;52070;53.760;9.678;2022-11-15T08:37:11;28.73;;;14.45;;
65373;SDS011;52070;53.760;9.678;2022-11-15T08:39:38;27.45;;;14.38;;
65373;SDS011;52070;53.760;9.678;2022-11-15T08:42:05;23.67;;;14.80;;
65373;SDS011;52070;53.760;9.678;2022-11-15T08:44:32;29.00;;;14.27;;
65373;SDS011;52070;53.760;9.678;2022-11-15T08:46:59;25.98;;;14.30;;
65373;SDS011;52070;53.760;9.678;2022-11-15T08:49:26;25.00;;;14.57;;
65373;SDS011;52070;53.760;9.678;2022-11-15T08:51:53;24.40;;;14.10;;
65373;SDS011;52070;53.760;9.678;2022-11-15T08:54:21;25.30;;;15.13;;
65373;SDS011;52070;53.760;9.678;2022-11-15T08:56:48;24.83;;;14.07;;
65373;SDS011;52070;53.760;9.678;2022-11-15T08:59:15;25.52;;;13.88;;
65373;SDS011;52070;53.760;9.678;2022-11-15T09:01:42;22.15;;;14.05;;
65373;SDS011;52070;53.760;9.678;2022-11-15T09:04:09;24.48;;;14.25;;
65373;SDS011;52070;53.760;9.678;2022-11-15T09:06:36;26.13;;;14.00;;
65373;SDS011;52070;53.760;9.678;2022-11-15T09:09:03;26.48;;;14.35;;
65373;SDS011;52070;53.760;9.678;2022-11-15T09:11:31;22.67;;;13.88;;
65373;SDS011;52070;53.760;9.678;2022-11-15T09:13:58;24.92;;;14.02;;
65373;SDS011;52070;53.760;9.678;2022-11-15T09:16:25;24.60;;;14.70;;
65373;SDS011;52070;53.760;9.678;2022-11-15T09:18:53;24.30;;;14.40;;
65373;SDS011;52070;53.760;9.678;2022-11-15T09:21:20;27.27;;;13.88;;
65373;SDS011;52070;53.760;9.678;2022-11-15T09:23:49;23.65;;;14.30;;
65373;SDS011;52070;53.760;9.678;2022-11-15T09:26:16;27.08;;;13.98;;
65373;SDS011;52070;53.760;9.678;2022-11-15T09:28:45;23.73;;;13.73;;
65373;SDS011;52070;53.760;9.678;2022-11-15T09:31:12;24.83;;;14.35;;
65373;SDS011;52070;53.760;9.678;2022-11-15T09:33:39;25.00;;;14.32;;
65373;SDS011;52070;53.760;9.678;2022-11-15T09:36:09;26.33;;;14.55;;
65373;SDS011;52070;53.760;9.678;2022-11-15T09:38:37;26.42;;;14.18;;
65373;SDS011;52070;53.760;9.678;2022-11-15T09:41:19;25.55;;;13.65;;
65373;SDS011;52070;53.760;9.678;2022-11-15T09:43:57;28.20;;;14.32;;
65373;SDS011;52070;53.760;9.678;2022-11-15T09:46:32;23.50;;;13.18;;
65373;SDS011;52070;53.760;9.678;2022-11-15T09:49:08;22.15;;;13.85;;
65373;SDS011;52070;53.760;9.678;2022-11-15T09:51:39;22.38;;;14.30;;
65373;SDS011;52070;53.760;9.678;2022-11-15T09:54:15;22.83;;;13.32;;
65373;SDS011;52070;53.760;9.678;2022-11-15T09:56:50;26.88;;;14.15;;
65373;SDS011;52070;53.760;9.678;2022-11-15T09:59:23;19.88;;;12.52;;
65373;SDS011;52070;53.760;9.678;2022-11-15T10:02:02;21.45;;;13.35;;
65373;SDS011;52070;53.760;9.678;2022-11-15T10:04:39;20.38;;;12.77;;
65373;SDS011;52070;53.760;9.678;2022-11-15T10:07:10;23.10;;;12.02;;
65373;SDS011;52070;53.760;9.678;2022-11-15T10:09:42;19.98;;;12.98;;
65373;SDS011;52070;53.760;9.678;2022-11-15T10:12:14;22.30;;;12.80;;
65373;SDS011;52070;53.760;9.678;2022-11-15T10:14:43;20.77;;;13.00;;
65373;SDS011;52070;53.760;9.678;2022-11-15T10:17:18;22.80;;;12.60;;
65373;SDS011;52070;53.760;9.678;2022-11-15T10:20:00;21.88;;;12.32;;
65373;SDS011;52070;53.760;9.678;2022-11-15T10:22:35;23.38;;;12.32;;
65373;SDS011;52070;53.760;9.678;2022-11-15T10:25:10;20.08;;;12.70;;
65373;SDS011;52070;53.760;9.678;2022-11-15T10:27:42;22.08;;;13.07;;
65373;SDS011;52070;53.760;9.678;2022-11-15T10:30:13;20.50;;;12.52;;
65373;SDS011;52070;53.760;9.678;2022-11-15T10:32:42;21.88;;;13.40;;
65373;SDS011;52070;53.760;9.678;2022-11-15T10:35:17;19.48;;;12.27;;
65373;SDS011;52070;53.760;9.678;2022-11-15T10:37:46;19.70;;;12.68;;
65373;SDS011;52070;53.760;9.678;2022-11-15T10:40:15;20.40;;;12.05;;
65373;SDS011;52070;53.760;9.678;2022-11-15T10:42:44;21.67;;;12.80;;
65373;SDS011;52070;53.760;9.678;2022-11-15T10:45:26;21.02;;;12.73;;
65373;SDS011;52070;53.760;9.678;2022-11-15T10:48:18;21.20;;;12.40;;
65373;SDS011;52070;53.760;9.678;2022-11-15T10:50:48;19.45;;;12.27;;
65373;SDS011;52070;53.760;9.678;2022-11-15T10:53:17;22.35;;;12.65;;
65373;SDS011;52070;53.760;9.678;2022-11-15T10:55:49;21.02;;;12.50;;
65373;SDS011;52070;53.760;9.678;2022-11-15T10:58:22;25.58;;;13.07;;
65373;SDS011;52070;53.760;9.678;2022-11-15T11:01:07;22.65;;;13.38;;
65373;SDS011;52070;53.760;9.678;2022-11-15T11:03:36;21.30;;;12.18;;
65373;SDS011;52070;53.760;9.678;2022-11-15T11:06:05;23.35;;;12.20;;
65373;SDS011;52070;53.760;9.678;2022-11-15T11:08:34;18.40;;;12.18;;
65373;SDS011;52070;53.760;9.678;2022-11-15T11:11:02;20.05;;;12.45;;
65373;SDS011;52070;53.760;9.678;2022-11-15T11:13:32;19.58;;;12.57;;
65373;SDS011;52070;53.760;9.678;2022-11-15T11:19:13;20.27;;;12.60;;
65373;SDS011;52070;53.760;9.678;2022-11-15T11:22:00;18.63;;;11.73;;
65373;SDS011;52070;53.760;9.678;2022-11-15T11:24:33;24.23;;;12.02;;
65373;SDS011;52070;53.760;9.678;2022-11-15T11:27:09;19.80;;;12.48;;
65373;SDS011;52070;53.760;9.678;2022-11-15T11:30:03;19.55;;;12.20;;
65373;SDS011;52070;53.760;9.678;2022-11-15T11:35:34;21.30;;;12.25;;
65373;SDS011;52070;53.760;9.678;2022-11-15T11:38:24;22.23;;;12.55;;
65373;SDS011;52070;53.760;9.678;2022-11-15T11:41:04;24.63;;;12.27;;
65373;SDS011;52070;53.760;9.678;2022-11-15T11:43:39;21.92;;;12.60;;
65373;SDS011;52070;53.760;9.678;2022-11-15T11:46:27;19.13;;;12.50;;
65373;SDS011;52070;53.760;9.678;2022-11-15T11:49:08;21.77;;;12.05;;
65373;SDS011;52070;53.760;9.678;2022-11-15T11:51:38;23.90;;;12.63;;
65373;SDS011;52070;53.760;9.678;2022-11-15T11:54:11;21.40;;;11.73;;
65373;SDS011;52070;53.760;9.678;2022-11-15T11:56:41;23.02;;;11.25;;
65373;SDS011;52070;53.760;9.678;2022-11-15T11:59:12;21.90;;;11.95;;
65373;SDS011;52070;53.760;9.678;2022-11-15T12:01:44;16.27;;;10.52;;
65373;SDS011;52070;53.760;9.678;2022-11-15T12:04:13;19.85;;;11.48;;
65373;SDS011;52070;53.760;9.678;2022-11-15T12:06:47;16.30;;;11.07;;
65373;SDS011;52070;53.760;9.678;2022-11-15T12:09:21;19.30;;;11.13;;
65373;SDS011;52070;53.760;9.678;2022-11-15T12:11:55;21.30;;;11.13;;
65373;SDS011;52070;53.760;9.678;2022-11-15T12:14:31;21.38;;;10.80;;
65373;SDS011;52070;53.760;9.678;2022-11-15T12:17:02;15.25;;;9.95;;
65373;SDS011;52070;53.760;9.678;2022-11-15T12:19:29;18.05;;;10.55;;
65373;SDS011;52070;53.760;9.678;2022-11-15T12:22:00;17.75;;;10.98;;
65373;SDS011;52070;53.760;9.678;2022-11-15T12:24:32;15.77;;;10.25;;
65373;SDS011;52070;53.760;9.678;2022-11-15T12:27:06;18.33;;;10.32;;
65373;SDS011;52070;53.760;9.678;2022-11-15T12:29:40;17.50;;;10.48;;
65373;SDS011;52070;53.760;9.678;2022-11-15T12:32:16;17.42;;;10.65;;
65373;SDS011;52070;53.760;9.678;2022-11-15T12:34:50;18.08;;;10.20;;
65373;SDS011;52070;53.760;9.678;2022-11-15T12:40:28;16.48;;;9.07;;
65373;SDS011;52070;53.760;9.678;2022-11-15T12:46:13;14.88;;;9.07;;
65373;SDS011;52070;53.760;9.678;2022-11-15T12:48:51;18.05;;;9.60;;
65373;SDS011;52070;53.760;9.678;2022-11-15T12:51:20;17.80;;;9.73;;
65373;SDS011;52070;53.760;9.678;2022-11-15T12:53:50;18.10;;;9.60;;
65373;SDS011;52070;53.760;9.678;2022-11-15T12:56:18;15.93;;;8.63;;
65373;SDS011;52070;53.760;9.678;2022-11-15T12:58:48;15.00;;;8.48;;
65373;SDS011;52070;53.760;9.678;2022-11-15T13:04:25;18.77;;;9.23;;
65373;SDS011;52070;53.760;9.678;2022-11-15T13:06:54;15.38;;;8.95;;
65373;SDS011;52070;53.760;9.678;2022-11-15T13:18:33;14.73;;;8.32;;
65373;SDS011;52070;53.760;9.678;2022-11-15T13:21:02;14.00;;;8.70;;
65373;SDS011;52070;53.760;9.678;2022-11-15T13:23:53;18.08;;;9.30;;
65373;SDS011;52070;53.760;9.678;2022-11-15T13:26:22;15.07;;;8.18;;
65373;SDS011;52070;53.760;9.678;2022-11-15T13:28:50;14.60;;;8.23;;
65373;SDS011;52070;53.760;9.678;2022-11-15T13:31:30;14.38;;;8.23;;
65373;SDS011;52070;53.760;9.678;2022-11-15T13:34:03;18.85;;;7.72;;
65373;SDS011;52070;53.760;9.678;2022-11-15T13:36:42;11.63;;;7.07;;
65373;SDS011;52070;53.760;9.678;2022-11-15T13:39:12;14.30;;;8.13;;
65373;SDS011;52070;53.760;9.678;2022-11-15T13:41:51;12.95;;;7.65;;
65373;SDS011;52070;53.760;9.678;2022-11-15T13:44:19;10.65;;;7.05;;
65373;SDS011;52070;53.760;9.678;2022-11-15T13:46:48;14.52;;;7.65;;
65373;SDS011;52070;53.760;9.678;2022-11-15T13:49:15;13.95;;;7.00;;
65373;SDS011;52070;53.760;9.678;2022-11-15T13:51:44;14.10;;;7.70;;
65373;SDS011;52070;53.760;9.678;2022-11-15T13:54:15;13.18;;;7.28;;
65373;SDS011;52070;53.760;9.678;2022-11-15T13:56:47;10.98;;;6.50;;
65373;SDS011;52070;53.760;9.678;2022-11-15T13:59:18;14.25;;;6.68;;
65373;SDS011;52070;53.760;9.678;2022-11-15T14:01:51;12.85;;;7.43;;
65373;SDS011;52070;53.760;9.678;2022-11-15T14:04:21;12.75;;;7.10;;
65373;SDS011;52070;53.760;9.678;2022-11-15T14:06:50;14.02;;;7.00;;
65373;SDS011;52070;53.760;9.678;2022-11-15T14:09:36;14.20;;;7.40;;
65373;SDS011;52070;53.760;9.678;2022-11-15T14:14:51;13.98;;;7.28;;
65373;SDS011;52070;53.760;9.678;2022-11-15T14:17:19;12.80;;;6.93;;
65373;SDS011;52070;53.760;9.678;2022-11-15T14:22:21;10.70;;;6.90;;
65373;SDS011;52070;53.760;9.678;2022-11-15T14:25:12;11.27;;;6.72;;
65373;SDS011;52070;53.760;9.678;2022-11-15T14:27:42;11.75;;;6.75;;
65373;SDS011;52070;53.760;9.678;2022-11-15T14:30:14;12.25;;;6.97;;
65373;SDS011;52070;53.760;9.678;2022-11-15T14:32:44;14.82;;;7.03;;
65373;SDS011;52070;53.760;9.678;2022-11-15T14:35:13;13.63;;;7.13;;
65373;SDS011;52070;53.760;9.678;2022-11-15T14:37:41;12.65;;;7.28;;
65373;SDS011;52070;53.760;9.678;2022-11-15T14:40:11;14.07;;;7.53;;
65373;SDS011;52070;53.760;9.678;2022-11-15T14:42:40;11.85;;;7.43;;
65373;SDS011;52070;53.760;9.678;2022-11-15T14:45:09;13.18;;;7.13;;
65373;SDS011;52070;53.760;9.678;2022-11-15T14:47:40;13.02;;;7.25;;
65373;SDS011;52070;53.760;9.678;2022-11-15T14:50:10;12.90;;;7.80;;
65373;SDS011;52070;53.760;9.678;2022-11-15T14:52:38;12.57;;;7.28;;
65373;SDS011;52070;53.760;9.678;2022-11-15T14:55:11;12.75;;;7.47;;
65373;SDS011;52070;53.760;9.678;2022-11-15T14:57:42;11.57;;;7.28;;
65373;SDS011;52070;53.760;9.678;2022-11-15T15:00:10;10.85;;;7.70;;
65373;SDS011;52070;53.760;9.678;2022-11-15T15:02:38;12.80;;;6.85;;
65373;SDS011;52070;53.760;9.678;2022-11-15T15:05:12;10.55;;;7.15;;
65373;SDS011;52070;53.760;9.678;2022-11-15T15:07:41;14.50;;;7.35;;
65373;SDS011;52070;53.760;9.678;2022-11-15T15:10:09;18.38;;;8.40;;
65373;SDS011;52070;53.760;9.678;2022-11-15T15:12:36;13.70;;;7.68;;
65373;SDS011;52070;53.760;9.678;2022-11-15T15:15:04;15.05;;;8.23;;
65373;SDS011;52070;53.760;9.678;2022-11-15T15:17:32;12.25;;;7.70;;